Latest Weather Observations for Lord Howe Island

IDN60801

Issued at 3:32 pm EST Tuesday 31 May 2016 (issued every 30 minutes, with the page automatically refreshed every 10 minutes)

About weather observations | Map of weather stations | Latest weather observations for NSW | Other Formats
Station Details ID: 200839 Name: LORD HOWE ISLAND AERO Lat: -31.54 Lon: 159.08 Height: 5.0 m
Data from the previous 72 hours. | See also: Recent months at Lord Howe Island
Date/Time
EST
Temp
°C
App
Temp
°C
Dew
Point
Rel
Hum
%
Delta-T
°C
Wind Press
QNH
hPa
Press
MSL
hPa
Rain
since 9 am
mm
Dir
 
Spd
km/h
Gust
km/h
Spd
kts
Gust
kts
31/03:00pm 18.3 17.0 11.1 63 3.9 SE 9 17 5 9 1024.1 - 1.6
31/02:30pm 17.7 16.2 11.8 68 3.2 SE 11 17 6 9 1024.1 1024.1 1.6
31/02:00pm 18.8 18.2 12.3 66 3.6 ESE 7 11 4 6 1024.1 - 1.6
31/01:30pm 18.2 17.2 12.2 68 3.3 ESE 9 20 5 11 1024.0 - 1.6
31/01:00pm 18.5 17.4 11.9 65 3.6 SSE 9 22 5 12 1023.9 - 1.6
31/12:30pm 17.4 16.2 12.9 75 2.5 ESE 11 19 6 10 1024.2 - 1.6
31/12:00pm 18.0 17.6 13.0 72 2.8 SSW 7 15 4 8 1024.5 - 1.4
31/11:30am 16.5 14.5 13.8 84 1.5 SSW 17 35 9 19 1024.9 1024.9 1.4
31/11:00am 20.1 18.6 10.7 54 5.1 SSW 9 19 5 10 1025.1 - 0.2
31/10:30am 19.4 18.3 12.0 62 4.1 SE 9 17 5 9 1025.6 - 0.0
31/10:00am 18.9 18.3 12.2 65 3.7 ESE 7 15 4 8 1025.7 - 0.0
31/09:30am 19.1 17.9 10.3 56 4.7 S 7 13 4 7 1025.7 - 0.0
31/09:00am 18.8 17.2 10.1 57 4.6 S 9 13 5 7 1025.8 - 0.0
31/08:30am 18.9 17.3 10.3 57 4.6 S 9 17 5 9 1025.4 1025.4 0.0
31/08:00am 18.0 15.9 9.6 58 4.4 S 11 17 6 9 1025.1 - 0.0
31/07:30am 17.5 15.5 10.1 62 3.9 S 11 17 6 9 1025.0 - 0.0
31/07:00am 16.9 16.0 10.7 67 3.3 SSW 6 9 3 5 1024.8 - 0.0
31/06:30am 16.8 15.1 9.9 64 3.6 SSW 9 17 5 9 1024.5 - 0.0
31/06:00am 17.5 15.9 11.4 67 3.3 SSW 11 19 6 10 1024.2 - 0.0
31/05:30am 16.9 16.1 10.9 67 3.2 SSE 6 9 3 5 1024.0 1024.0 0.0
31/05:00am 17.3 16.1 11.6 69 3.1 S 9 20 5 11 1023.6 - 0.0
31/04:30am 15.8 14.7 10.0 68 3.0 S 6 9 3 5 1023.4 - 0.0
31/04:00am 17.1 15.5 8.9 58 4.2 SSW 7 15 4 8 1023.3 - 0.0
31/03:30am 16.8 15.3 9.0 60 4.0 S 7 15 4 8 1023.2 - 0.0
31/03:00am 14.7 14.4 10.1 74 2.4 S 2 7 1 4 1023.1 - 0.0
31/02:30am 16.1 15.3 9.7 66 3.3 SSE 4 9 2 5 1023.2 1023.2 0.0
31/02:00am 16.6 15.1 9.0 61 3.9 SSW 7 11 4 6 1023.2 - 0.0
31/01:30am 17.4 14.7 10.4 63 3.7 SSW 15 30 8 16 1023.3 - 0.0
31/01:00am 16.8 15.8 11.0 68 3.1 SSW 7 13 4 7 1023.5 - 0.0
31/12:30am 17.5 15.7 12.2 71 2.9 SSW 13 22 7 12 1023.5 - 0.0
31/12:00am 16.9 15.0 10.5 66 3.4 SSW 11 20 6 11 1023.4 - 0.0
 
Date/Time
EST
Temp
°C
App
Temp
°C
Dew
Point
Rel
Hum
%
Delta-T
°C
Wind Press
QNH
hPa
Press
MSL
hPa
Rain
since 9 am
mm
Dir
 
Spd
km/h
Gust
km/h
Spd
kts
Gust
kts
30/11:30pm 15.9 15.0 11.2 73 2.5 S 7 13 4 7 1023.5 1023.5 0.0
30/11:00pm 17.2 13.6 11.7 70 3.0 SSW 22 39 12 21 1023.4 - 0.0
30/10:30pm 18.1 15.0 10.2 60 4.2 SSW 17 26 9 14 1023.3 - 0.0
30/10:00pm 18.2 15.1 10.3 60 4.2 SW 17 26 9 14 1023.3 - 0.0
30/09:30pm 18.3 15.0 10.9 62 4.0 SSW 19 28 10 15 1023.1 - 0.0
30/09:00pm 18.3 15.1 11.3 63 3.8 SSW 19 28 10 15 1023.0 - 0.0
30/08:30pm 18.4 14.7 10.3 59 4.3 SW 20 30 11 16 1023.0 1023.0 0.0
30/08:00pm 18.6 15.3 11.0 61 4.1 SW 19 32 10 17 1022.9 - 0.0
30/07:30pm 18.7 15.2 10.9 60 4.2 SW 20 30 11 16 1022.8 - 0.0
30/07:00pm 18.7 14.7 10.5 59 4.4 SW 22 32 12 17 1022.4 - 0.0
30/06:30pm 18.8 15.5 10.8 59 4.3 SW 19 28 10 15 1022.2 - 0.0
30/06:00pm 18.6 15.3 10.8 60 4.2 SW 19 30 10 16 1021.9 - 0.0
30/05:30pm 18.5 14.8 10.2 58 4.4 SW 20 32 11 17 1021.7 1021.7 0.0
30/05:00pm 18.3 15.3 12.1 67 3.4 SW 19 28 10 15 1021.4 - 0.0
30/04:30pm 18.3 14.9 11.1 63 3.9 SW 20 32 11 17 1021.1 - 0.0
30/04:09pm 18.1 13.4 11.9 67 3.4 SW 28 48 15 26 1021.1 - 0.0
30/04:00pm 19.0 15.0 10.6 58 4.5 SW 22 35 12 19 1020.9 - 0.0
30/03:30pm 19.2 15.3 10.7 58 4.6 SW 22 33 12 18 1020.5 - 0.0
30/03:00pm 19.3 14.9 10.4 56 4.8 SW 24 35 13 19 1020.3 - 0.0
30/02:30pm 19.6 14.6 10.9 57 4.7 WSW 28 37 15 20 1020.1 1020.1 0.0
30/02:00pm 19.8 14.7 9.2 50 5.6 SW 26 39 14 21 1020.0 - 0.0
30/01:30pm 19.7 14.2 9.0 50 5.6 SW 28 41 15 22 1019.8 - 0.0
30/01:17pm 19.7 14.4 9.7 52 5.3 SW 28 46 15 25 1019.9 - 0.0
30/01:00pm 19.6 14.6 9.6 52 5.3 SW 26 43 14 23 1019.9 - 0.0
30/12:30pm 19.2 13.9 12.4 64 3.8 WSW 32 41 17 22 1019.9 - 0.0
30/12:00pm 18.4 12.6 11.4 63 3.8 WSW 33 43 18 23 1020.4 - 0.0
30/11:30am 19.7 14.9 10.4 55 5.0 WSW 26 35 14 19 1020.6 1020.6 0.0
30/11:00am 19.8 15.9 10.8 56 4.9 SW 22 35 12 19 1020.9 - 0.0
30/10:30am 19.7 15.2 10.2 54 5.1 SW 24 35 13 19 1021.1 - 0.0
30/10:00am 19.5 14.9 9.7 53 5.2 SW 24 37 13 20 1021.3 - 0.0
30/09:30am 19.5 15.1 10.4 55 4.9 SW 24 39 13 21 1021.2 - 0.0
30/09:00am 19.4 15.2 11.1 58 4.5 SW 24 33 13 18 1020.9 - 0.0
30/08:30am 19.2 15.1 10.2 56 4.8 SW 22 33 12 18 1020.7 1020.7 2.8
30/08:00am 18.8 14.8 10.6 59 4.4 SW 22 32 12 17 1020.4 - 2.8
30/07:30am 18.7 14.7 10.3 58 4.5 SW 22 33 12 18 1020.1 - 2.8
30/07:00am 18.6 15.0 10.4 59 4.4 SW 20 30 11 16 1019.9 - 2.8
30/06:30am 18.6 15.0 10.4 59 4.4 SW 20 28 11 15 1019.5 - 2.8
30/06:00am 18.1 14.3 11.1 63 3.8 WSW 22 30 12 16 1019.0 - 2.8
30/05:30am 17.8 11.1 12.4 70 3.0 W 39 50 21 27 1018.7 1018.7 2.8
30/05:14am 17.8 11.5 13.4 75 2.5 W 39 46 21 25 1018.5 - 2.8
30/05:00am 18.6 14.0 9.5 55 4.8 SW 24 37 13 20 1018.3 - 2.8
30/04:30am 18.6 14.5 10.2 58 4.5 SW 22 35 12 19 1018.0 - 2.8
30/04:00am 18.4 14.1 10.8 61 4.1 SW 24 35 13 19 1017.8 - 2.8
30/03:30am 18.3 14.0 10.9 62 4.0 SW 24 39 13 21 1017.6 - 2.8
30/03:00am 18.2 13.8 10.5 60 4.1 SW 24 37 13 20 1017.5 - 2.8
30/02:30am 18.4 13.8 11.2 63 3.9 SW 26 35 14 19 1017.3 1017.3 2.8
30/02:00am 18.5 13.6 11.3 63 3.9 SW 28 39 15 21 1017.2 - 2.8
30/01:30am 18.6 14.4 12.5 67 3.4 SW 26 35 14 19 1017.1 - 2.8
30/01:04am 19.2 14.8 13.0 67 3.5 SW 28 46 15 25 1016.9 - 2.8
30/01:00am 19.0 13.9 9.3 53 5.1 SW 26 41 14 22 1017.0 - 2.8
30/12:30am 18.8 15.4 11.1 61 4.2 SW 20 32 11 17 1016.8 - 2.8
30/12:00am 18.9 15.7 11.8 63 3.9 SW 20 32 11 17 1016.8 - 2.8
 
Date/Time
EST
Temp
°C
App
Temp
°C
Dew
Point
Rel
Hum
%
Delta-T
°C
Wind Press
QNH
hPa
Press
MSL
hPa
Rain
since 9 am
mm
Dir
 
Spd
km/h
Gust
km/h
Spd
kts
Gust
kts
29/11:30pm 18.8 15.5 12.7 67 3.4 SW 22 33 12 18 1016.8 1016.8 2.8
29/11:00pm 18.8 15.3 12.3 66 3.6 SW 22 32 12 17 1017.0 - 2.8
29/10:30pm 18.9 15.3 11.8 63 3.9 SW 22 32 12 17 1016.9 - 2.8
29/10:00pm 18.7 15.8 12.2 66 3.6 SW 19 30 10 16 1016.9 - 2.8
29/09:30pm 18.9 15.5 12.6 67 3.5 SW 22 33 12 18 1016.9 - 2.8
29/09:00pm 18.6 15.6 12.5 67 3.4 SW 20 28 11 15 1016.7 - 2.8
29/08:30pm 18.3 15.3 12.1 67 3.4 SW 19 26 10 14 1016.4 1016.4 2.8
29/08:00pm 17.9 15.2 12.9 72 2.8 SW 19 28 10 15 1016.1 - 2.8
29/07:30pm 18.6 16.2 13.7 73 2.8 SW 19 30 10 16 1015.7 - 2.6
29/07:00pm 18.1 15.3 13.3 73 2.7 SW 20 28 11 15 1015.5 - 2.6
29/06:36pm 17.3 15.1 13.2 77 2.3 SW 17 24 9 13 1015.3 - 2.6
29/06:30pm 17.0 14.7 12.9 77 2.3 SW 17 22 9 12 1015.3 - 2.6
29/06:15pm 17.1 14.7 14.5 85 1.5 WSW 20 35 11 19 1015.3 - 1.2
29/06:00pm 18.5 15.8 13.0 70 3.1 SW 19 26 10 14 1015.0 - 0.0
29/05:30pm 18.7 15.3 12.6 67 3.4 SW 22 30 12 16 1014.6 1014.6 0.0
29/05:00pm 18.8 15.3 12.3 66 3.6 SW 22 30 12 16 1014.2 - 0.0
29/04:30pm 18.8 14.9 13.3 70 3.1 SW 26 37 14 20 1013.8 - 0.0
29/04:00pm 19.1 15.3 11.2 60 4.3 SW 22 32 12 17 1013.2 - 0.0
29/03:30pm 19.2 15.8 12.6 65 3.7 SW 22 33 12 18 1012.9 - 0.0
29/03:00pm 19.0 15.4 13.2 69 3.3 SW 24 33 13 18 1012.6 - 0.0
29/02:30pm 19.5 16.4 13.4 68 3.5 SW 22 32 12 17 1012.2 1012.2 0.0
29/02:00pm 19.9 15.6 12.2 61 4.3 WSW 26 39 14 21 1012.0 - 0.0
29/01:30pm 19.3 15.6 12.7 65 3.7 SW 24 35 13 19 1011.9 - 0.0
29/01:25pm 19.3 14.7 12.3 64 3.9 SW 28 46 15 25 1011.9 - 0.0
29/01:00pm 19.5 14.9 12.3 63 4.0 WSW 28 37 15 20 1011.8 - 0.0
29/12:39pm 19.6 15.0 12.3 62 4.1 WSW 28 46 15 25 1011.7 - 0.0
29/12:30pm 19.7 14.6 11.8 60 4.4 WSW 30 43 16 23 1011.6 - 0.0
29/12:00pm 20.0 14.3 11.3 57 4.8 WSW 32 41 17 22 1011.6 - 0.0
29/11:30am 19.9 14.5 12.2 61 4.3 WSW 32 43 17 23 1011.7 1011.7 0.0
29/11:00am 19.4 15.2 12.4 64 3.9 WSW 26 41 14 22 1011.7 - 0.0
29/10:30am 20.0 14.4 12.1 60 4.4 WSW 33 43 18 23 1011.7 - 0.0
29/10:00am 19.5 14.2 12.5 64 3.9 WSW 32 41 17 22 1011.9 - 0.0
29/09:30am 19.4 14.7 12.0 62 4.1 SW 28 41 15 22 1011.9 - 0.0
29/09:00am 19.1 14.6 12.7 66 3.6 WSW 28 41 15 22 1011.6 - 0.0
29/08:30am 18.6 14.4 13.5 72 2.9 SW 28 41 15 22 1011.2 1011.2 10.6
29/08:00am 18.6 13.1 12.3 67 3.5 SW 33 46 18 25 1010.7 - 10.6
29/07:30am 18.7 11.4 12.8 68 3.3 WSW 43 54 23 29 1010.2 - 10.6
29/07:00am 18.6 10.9 13.3 71 3.0 WSW 46 56 25 30 1009.7 - 10.6
29/06:30am 17.9 9.9 12.3 70 3.1 WSW 46 57 25 31 1009.4 - 10.6
29/06:24am 17.5 10.3 13.0 75 2.5 WSW 43 50 23 27 1009.4 - 10.6
29/06:06am 16.2 7.7 13.2 82 1.7 WSW 50 65 27 35 1009.1 - 10.6
29/06:01am 17.6 9.6 13.5 77 2.3 WSW 48 65 26 35 1009.1 - 10.4
29/06:00am 18.2 10.5 13.2 72 2.8 WSW 46 56 25 30 1009.1 - 10.2
29/05:44am 17.3 9.5 14.2 82 1.8 WSW 48 61 26 33 1009.0 - 10.2
29/05:30am 18.7 10.4 12.6 67 3.4 WSW 48 59 26 32 1008.9 1008.9 10.0
29/05:04am 18.1 8.3 11.5 65 3.6 WSW 54 65 29 35 1008.3 - 10.0
29/05:00am 17.9 8.2 11.9 68 3.3 WSW 54 69 29 37 1008.2 - 10.0
29/04:44am 17.3 9.5 14.0 81 1.9 WSW 48 76 26 41 1007.9 - 10.0
29/04:30am 18.3 10.6 11.6 65 3.7 WSW 43 56 23 30 1007.7 - 8.8
29/04:00am 18.0 9.4 11.8 67 3.4 WSW 48 59 26 32 1007.4 - 8.8
29/03:30am 18.3 10.7 12.4 68 3.3 WSW 44 57 24 31 1007.1 - 8.8
29/03:00am 18.3 9.5 12.2 67 3.4 WSW 50 67 27 36 1006.6 - 8.8
29/02:59am 18.3 9.6 11.3 63 3.8 W 48 67 26 36 1006.6 - 8.8
29/02:30am 17.5 9.0 11.9 69 3.1 WSW 48 59 26 32 1006.6 1006.6 8.8
29/02:00am 17.3 9.1 11.6 69 3.1 WSW 46 57 25 31 1006.5 - 8.8
29/01:30am 16.8 8.7 10.6 67 3.3 WSW 44 56 24 30 1006.7 - 8.8
29/01:00am 16.0 8.5 10.7 71 2.8 WSW 41 56 22 30 1007.2 - 8.8
29/12:50am 15.8 7.0 11.1 73 2.5 WSW 48 67 26 36 1007.4 - 8.8
29/12:42am 15.6 6.8 11.1 74 2.4 WSW 48 67 26 36 1007.4 - 8.8
29/12:39am 15.5 6.9 11.6 77 2.1 WSW 48 65 26 35 1007.5 - 8.8
29/12:30am 16.0 7.8 10.5 70 2.9 WSW 44 67 24 36 1007.5 - 8.6
29/12:25am 15.7 7.6 10.2 70 2.9 WSW 43 61 23 33 1007.3 - 8.6
29/12:18am 15.6 7.9 10.1 70 2.9 SW 41 57 22 31 1007.3 - 8.6
29/12:08am 16.6 7.2 10.2 66 3.4 W 50 80 27 43 1007.1 - 8.6
29/12:00am 17.2 8.0 10.9 66 3.4 W 50 65 27 35 1006.8 - 8.6
 
Date/Time
EST
Temp
°C
App
Temp
°C
Dew
Point
Rel
Hum
%
Delta-T
°C
Wind Press
QNH
hPa
Press
MSL
hPa
Rain
since 9 am
mm
Dir
 
Spd
km/h
Gust
km/h
Spd
kts
Gust
kts
28/11:30pm 16.8 8.5 9.5 62 3.8 W 43 52 23 28 1006.6 1006.6 8.6
28/11:01pm 16.3 7.4 10.5 68 3.1 WSW 48 61 26 33 1006.8 - 8.6
28/11:00pm 16.2 7.4 11.0 71 2.8 WSW 48 61 26 33 1006.8 - 8.6
28/10:52pm 15.7 9.4 12.2 80 1.9 WSW 37 56 20 30 1007.1 - 8.6
28/10:35pm 14.7 6.9 11.3 80 1.8 WSW 43 59 23 32 1007.4 - 7.2
28/10:30pm 15.3 7.6 12.0 81 1.8 WSW 44 59 24 32 1007.4 - 7.0
28/10:25pm 15.8 7.7 10.1 69 3.0 WSW 43 57 23 31 1007.2 - 7.0
28/10:22pm 16.9 7.6 10.7 67 3.3 W 50 69 27 37 1006.9 - 7.0
28/10:00pm 16.5 7.7 11.1 70 2.9 W 48 59 26 32 1006.9 - 7.0
28/09:30pm 16.9 7.4 9.7 62 3.8 WSW 50 65 27 35 1006.7 - 7.0
28/09:10pm 16.0 7.4 11.6 75 2.4 WSW 48 61 26 33 1007.0 - 6.6
28/09:03pm 15.6 6.6 11.5 76 2.2 WSW 50 65 27 35 1007.0 - 6.6
28/09:00pm 15.5 5.7 11.4 76 2.2 WSW 54 67 29 36 1007.0 - 6.6
28/08:37pm 15.5 6.6 13.2 86 1.3 WSW 52 70 28 38 1007.4 - 4.2
28/08:30pm 15.2 6.6 13.0 87 1.2 WSW 50 70 27 38 1007.4 1007.4 3.2
28/08:28pm 15.4 7.7 13.2 87 1.2 WSW 46 65 25 35 1007.2 - 2.6
28/08:24pm 15.2 8.8 13.2 88 1.1 SW 39 52 21 28 1006.8 - 2.2
28/08:23pm 15.5 12.0 13.5 88 1.1 W 24 56 13 30 1006.6 - 2.0
28/08:22pm 16.2 13.3 13.0 81 1.8 W 20 56 11 30 1006.5 - 1.8
28/08:03pm 15.7 12.1 12.0 78 2.0 WNW 22 43 12 23 1006.7 - 0.8
28/08:00pm 16.2 12.9 11.6 74 2.5 WNW 20 43 11 23 1006.9 - 0.2
28/07:34pm 18.5 15.3 12.0 66 3.6 WNW 20 35 11 19 1006.1 - 0.0
28/07:30pm 18.5 12.0 11.6 64 3.8 WSW 37 50 20 27 1006.0 - 0.0
28/07:23pm 18.4 10.8 11.9 66 3.6 WSW 43 48 23 26 1005.8 - 0.0
28/07:21pm 18.8 14.0 11.5 62 4.0 W 28 54 15 29 1005.8 - 0.0
28/07:00pm 19.5 15.4 8.8 50 5.6 WNW 20 32 11 17 1006.0 - 0.0
28/06:30pm 19.4 15.7 10.3 55 4.9 WNW 20 33 11 18 1006.0 - 0.0
28/06:00pm 19.3 15.5 9.0 51 5.4 WNW 19 33 10 18 1006.1 - 0.0
28/05:30pm 19.1 13.4 11.7 62 4.1 W 33 46 18 25 1006.1 1006.1 0.0
28/05:00pm 19.4 13.5 10.5 56 4.8 W 32 39 17 21 1006.0 - 0.0
28/04:30pm 19.3 13.6 11.1 59 4.5 W 32 39 17 21 1005.8 - 0.0
28/04:00pm 19.6 13.5 10.6 56 4.9 W 33 41 18 22 1005.8 - 0.0
28/03:30pm 19.7 13.7 10.9 57 4.8 W 33 44 18 24 1005.8 - 0.0

Other Formats:

Comma delimited format used in spreadsheet applications
http://www.bom.gov.au/fwo/IDN60801/IDN60801.94995.axf

JavaScript Object Notation format (JSON) in row-major order
http://www.bom.gov.au/fwo/IDN60801/IDN60801.94995.json